createdAt,value
2023-12-24T00:01:37.565Z,2.50
2023-12-24T00:04:07.754Z,1.90
2023-12-24T00:06:37.872Z,1.83
2023-12-24T00:09:07.857Z,2.08
2023-12-24T00:11:37.731Z,2.03
2023-12-24T00:14:07.709Z,1.52
2023-12-24T00:16:43.348Z,1.80
2023-12-24T00:19:13.364Z,1.90
2023-12-24T00:21:43.866Z,1.52
2023-12-24T00:24:12.728Z,2.20
2023-12-24T00:26:42.839Z,2.65
2023-12-24T00:29:13.637Z,2.00
2023-12-24T00:31:46.050Z,1.38
2023-12-24T00:34:16.050Z,1.90
2023-12-24T00:36:46.743Z,1.83
2023-12-24T00:39:17.588Z,1.75
2023-12-24T00:41:47.461Z,2.42
2023-12-24T00:44:18.105Z,2.17
2023-12-24T00:46:50.688Z,1.83
2023-12-24T00:49:20.583Z,2.38
2023-12-24T00:51:51.567Z,1.95
2023-12-24T00:54:21.584Z,3.20
2023-12-24T00:56:52.086Z,2.72
2023-12-24T00:59:22.924Z,2.78
2023-12-24T01:01:56.327Z,2.47
2023-12-24T01:04:26.424Z,2.88
2023-12-24T01:06:56.546Z,2.95
2023-12-24T01:09:26.444Z,2.75
2023-12-24T01:11:57.032Z,3.85
2023-12-24T01:14:27.492Z,3.10
2023-12-24T01:17:00.388Z,3.00
2023-12-24T01:19:32.380Z,3.08
2023-12-24T01:22:02.674Z,3.35
2023-12-24T01:24:36.033Z,3.25
2023-12-24T01:27:05.970Z,3.97
2023-12-24T01:29:36.036Z,3.78
2023-12-24T01:32:09.304Z,3.25
2023-12-24T01:34:39.707Z,3.55
2023-12-24T01:37:09.780Z,3.45
2023-12-24T01:39:40.500Z,3.35
2023-12-24T01:42:10.535Z,2.42
2023-12-24T01:44:40.656Z,4.07
2023-12-24T01:47:13.233Z,3.58
2023-12-24T01:49:46.886Z,3.05
2023-12-24T01:52:17.703Z,2.92
2023-12-24T01:54:50.381Z,3.90
2023-12-24T01:57:20.645Z,2.70
2023-12-24T01:59:51.138Z,2.70
2023-12-24T02:02:24.979Z,3.35
2023-12-24T02:04:55.215Z,3.00
2023-12-24T02:07:28.726Z,2.88
2023-12-24T02:09:59.247Z,2.88
2023-12-24T02:12:29.211Z,2.63
2023-12-24T02:14:59.184Z,2.70
2023-12-24T02:17:33.408Z,2.75
2023-12-24T02:20:04.507Z,2.38
2023-12-24T02:22:36.971Z,1.75
2023-12-24T02:25:08.777Z,2.70
2023-12-24T02:27:46.886Z,2.75
2023-12-24T02:30:23.613Z,2.53
2023-12-24T02:32:59.079Z,2.50
2023-12-24T02:35:33.175Z,2.10
2023-12-24T02:38:06.043Z,2.65
2023-12-24T02:40:36.428Z,2.95
2023-12-24T02:43:07.154Z,2.80
2023-12-24T02:45:37.194Z,3.58
2023-12-24T02:48:08.840Z,2.90
2023-12-24T02:50:39.549Z,2.85
2023-12-24T02:53:12.109Z,2.45
2023-12-24T02:55:43.725Z,2.95
2023-12-24T02:58:13.869Z,2.80
2023-12-24T03:00:43.997Z,2.60
2023-12-24T03:03:13.933Z,2.70
2023-12-24T03:05:43.874Z,2.70
2023-12-24T03:08:16.700Z,2.97
2023-12-24T03:10:46.751Z,3.35
2023-12-24T03:13:17.657Z,3.17
2023-12-24T03:15:48.093Z,3.15
2023-12-24T03:18:18.525Z,3.60
2023-12-24T03:20:48.461Z,3.33
2023-12-24T03:23:21.010Z,3.72
2023-12-24T03:25:51.296Z,3.85
2023-12-24T03:28:21.702Z,3.75
2023-12-24T03:30:51.680Z,4.10
2023-12-24T03:33:21.899Z,3.63
2023-12-24T03:35:51.883Z,3.80
2023-12-24T03:38:24.535Z,4.43
2023-12-24T03:40:54.580Z,4.05
2023-12-24T03:43:24.580Z,4.45
2023-12-24T03:45:54.510Z,4.20
2023-12-24T03:48:25.246Z,4.55
2023-12-24T03:50:55.116Z,4.65
2023-12-24T03:53:28.067Z,5.18
2023-12-24T03:55:58.647Z,4.93
2023-12-24T03:58:28.854Z,5.70
2023-12-24T04:00:59.283Z,4.90
2023-12-24T04:03:29.151Z,5.78
2023-12-24T04:05:59.255Z,6.82
2023-12-24T04:08:32.061Z,6.88
2023-12-24T04:11:01.957Z,7.75
2023-12-24T04:13:32.318Z,11.48
2023-12-24T04:16:02.158Z,8.45
2023-12-24T04:18:32.498Z,9.23
2023-12-24T04:21:02.725Z,9.48
2023-12-24T04:23:35.746Z,8.43
2023-12-24T04:26:05.726Z,8.32
2023-12-24T04:28:35.988Z,7.20
2023-12-24T04:31:07.857Z,8.15
2023-12-24T04:33:37.943Z,8.68
2023-12-24T04:36:09.621Z,7.50
2023-12-24T04:38:42.106Z,6.57
2023-12-24T04:41:19.566Z,7.78
2023-12-24T04:43:50.658Z,6.88
2023-12-24T04:46:21.915Z,6.53
2023-12-24T04:48:52.856Z,6.72
2023-12-24T04:51:23.310Z,6.50
2023-12-24T04:53:56.108Z,6.90
2023-12-24T04:56:26.372Z,6.32
2023-12-24T04:58:58.531Z,7.05
2023-12-24T05:01:30.433Z,7.47
2023-12-24T05:04:01.560Z,7.32
2023-12-24T05:06:32.018Z,7.00
2023-12-24T05:09:04.563Z,5.22
2023-12-24T05:11:35.890Z,7.38
2023-12-24T05:14:06.163Z,6.30
2023-12-24T05:16:36.262Z,6.65
2023-12-24T05:19:03.709Z,7.45
2023-12-24T05:21:34.845Z,7.32
2023-12-24T05:24:08.773Z,8.27
2023-12-24T05:26:38.587Z,7.22
2023-12-24T05:29:08.646Z,7.47
2023-12-24T05:31:42.044Z,6.72
2023-12-24T05:34:12.550Z,6.97
2023-12-24T05:36:42.875Z,5.88
2023-12-24T05:39:16.434Z,4.75
2023-12-24T05:41:47.673Z,6.55
2023-12-24T05:44:17.662Z,5.18
2023-12-24T05:46:47.552Z,4.93
2023-12-24T05:49:17.587Z,5.10
2023-12-24T05:51:47.752Z,3.83
2023-12-24T05:54:20.569Z,5.18
2023-12-24T05:56:50.379Z,4.53
2023-12-24T05:59:20.334Z,4.07
2023-12-24T06:01:50.213Z,3.80
2023-12-24T06:04:20.927Z,4.10
2023-12-24T06:06:50.739Z,3.88
2023-12-24T06:09:23.229Z,3.15
2023-12-24T06:11:53.368Z,3.05
2023-12-24T06:14:23.229Z,3.80
2023-12-24T06:16:53.312Z,2.88
2023-12-24T06:19:23.346Z,3.40
2023-12-24T06:21:54.781Z,3.30
2023-12-24T06:24:27.251Z,2.40
2023-12-24T06:26:57.551Z,3.10
2023-12-24T06:29:27.422Z,3.03
2023-12-24T06:31:59.357Z,2.83
2023-12-24T06:34:29.241Z,2.90
2023-12-24T06:37:00.003Z,2.60
2023-12-24T06:39:32.554Z,2.40
2023-12-24T06:42:02.560Z,2.50
2023-12-24T06:44:32.451Z,1.92
2023-12-24T06:47:02.272Z,2.28
2023-12-24T06:49:32.500Z,2.30
2023-12-24T06:52:02.370Z,1.88
2023-12-24T06:54:34.799Z,1.98
2023-12-24T06:57:05.017Z,1.48
2023-12-24T06:59:35.718Z,1.45
2023-12-24T07:02:05.876Z,2.15
2023-12-24T07:04:37.064Z,2.25
2023-12-24T07:07:07.978Z,1.85
2023-12-24T07:09:40.354Z,1.30
2023-12-24T07:12:11.092Z,1.20
2023-12-24T07:14:41.833Z,2.10
2023-12-24T07:17:11.844Z,2.63
2023-12-24T07:19:41.713Z,1.73
2023-12-24T07:22:11.728Z,1.60
2023-12-24T07:24:45.079Z,1.80
2023-12-24T07:27:15.282Z,1.15
2023-12-24T07:29:45.137Z,1.50
2023-12-24T07:32:15.091Z,1.55
2023-12-24T07:34:44.906Z,1.58
2023-12-24T07:37:15.244Z,1.17
2023-12-24T07:39:47.880Z,1.60
2023-12-24T07:42:17.856Z,1.80
2023-12-24T07:44:49.305Z,1.50
2023-12-24T07:47:19.722Z,1.80
2023-12-24T07:49:49.687Z,2.03
2023-12-24T07:52:19.595Z,1.35
2023-12-24T07:54:52.789Z,1.60
2023-12-24T07:57:23.097Z,1.77
2023-12-24T07:59:52.891Z,1.80
2023-12-24T08:02:23.255Z,1.60
2023-12-24T08:04:55.829Z,1.15
2023-12-24T08:07:25.872Z,1.63
2023-12-24T08:09:58.791Z,1.70
2023-12-24T08:12:28.606Z,1.10
2023-12-24T08:14:58.565Z,1.92
2023-12-24T08:17:28.490Z,1.77
2023-12-24T08:19:58.376Z,1.75
2023-12-24T08:22:28.151Z,1.85
2023-12-24T08:25:00.967Z,1.65
2023-12-24T08:27:31.048Z,1.73
2023-12-24T08:30:00.949Z,1.60
2023-12-24T08:32:31.116Z,1.45
2023-12-24T08:35:01.683Z,1.05
2023-12-24T08:37:31.534Z,1.73
2023-12-24T08:40:04.691Z,1.13
2023-12-24T08:42:34.446Z,1.13
2023-12-24T08:45:04.866Z,1.50
2023-12-24T08:47:34.903Z,1.52
2023-12-24T08:50:05.129Z,1.20
2023-12-24T08:52:35.781Z,1.70
2023-12-24T08:55:08.920Z,1.95
2023-12-24T08:57:38.983Z,1.60
2023-12-24T09:00:12.708Z,1.40
2023-12-24T09:02:42.784Z,1.50
2023-12-24T09:05:12.665Z,1.65
2023-12-24T09:07:43.315Z,2.05
2023-12-24T09:10:16.588Z,1.80
2023-12-24T09:12:46.464Z,1.92
2023-12-24T09:15:16.283Z,2.20
2023-12-24T09:17:46.484Z,2.10
2023-12-24T09:20:16.674Z,1.95
2023-12-24T09:22:46.995Z,2.00
2023-12-24T09:25:22.049Z,2.00
2023-12-24T09:27:52.312Z,2.40
2023-12-24T09:30:22.916Z,1.92
2023-12-24T09:32:53.018Z,2.00
2023-12-24T09:37:51.973Z,1.40
2023-12-24T09:40:24.388Z,2.25
2023-12-24T09:42:54.899Z,1.98
2023-12-24T09:45:28.381Z,2.03
2023-12-24T09:48:00.441Z,1.92
2023-12-24T09:50:31.112Z,2.03
2023-12-24T09:53:01.706Z,2.10
2023-12-24T09:55:34.158Z,2.20
2023-12-24T09:58:04.239Z,1.75
2023-12-24T10:00:34.512Z,2.35
2023-12-24T10:03:04.845Z,1.95
2023-12-24T10:05:35.104Z,2.50
2023-12-24T10:08:05.094Z,2.15
2023-12-24T10:10:37.633Z,2.35
2023-12-24T10:13:08.866Z,1.92
2023-12-24T10:15:40.519Z,2.28
2023-12-24T10:18:21.238Z,2.33
2023-12-24T10:20:52.305Z,1.92
2023-12-24T10:23:23.532Z,2.35
2023-12-24T10:26:08.474Z,2.97
2023-12-24T10:28:57.904Z,2.00
2023-12-24T10:31:31.690Z,3.00
2023-12-24T10:34:03.462Z,2.38
2023-12-24T10:36:33.894Z,2.80
2023-12-24T10:39:04.141Z,2.80
2023-12-24T10:41:36.909Z,2.85
2023-12-24T10:44:07.052Z,2.97
2023-12-24T10:46:37.099Z,3.00
2023-12-24T10:49:07.245Z,3.05
2023-12-24T10:51:40.512Z,3.38
2023-12-24T10:54:11.444Z,2.40
2023-12-24T10:56:57.259Z,3.15
2023-12-24T10:59:46.867Z,2.95
2023-12-24T11:02:17.372Z,2.90
2023-12-24T11:04:49.928Z,2.78
2023-12-24T11:07:49.703Z,2.80
2023-12-24T11:10:42.402Z,2.70
2023-12-24T11:13:38.018Z,2.40
2023-12-24T11:16:10.761Z,1.92
2023-12-24T11:18:45.836Z,2.80
2023-12-24T11:21:17.110Z,2.85
2023-12-24T11:26:36.495Z,2.67
2023-12-24T11:29:44.400Z,2.58
2023-12-24T11:32:38.291Z,2.42
2023-12-24T11:35:10.698Z,2.85
2023-12-24T11:37:41.079Z,2.28
2023-12-24T11:40:14.449Z,1.98
2023-12-24T11:42:46.550Z,2.88
2023-12-24T11:48:07.527Z,2.47
2023-12-24T11:50:37.648Z,2.67
2023-12-24T11:53:08.854Z,2.47
2023-12-24T11:55:38.766Z,2.95
2023-12-24T11:58:08.572Z,3.20
2023-12-24T12:00:38.775Z,2.72
2023-12-24T12:03:11.617Z,2.78
2023-12-24T12:05:42.472Z,2.55
2023-12-24T12:08:12.390Z,3.30
2023-12-24T12:10:44.374Z,3.40
2023-12-24T12:13:14.336Z,2.15
2023-12-24T12:15:46.570Z,3.80
2023-12-24T12:18:20.025Z,4.05
2023-12-24T12:20:50.642Z,3.25
2023-12-24T12:23:21.106Z,3.33
2023-12-24T12:25:57.068Z,3.13
2023-12-24T12:28:28.004Z,3.25
2023-12-24T12:30:59.364Z,3.25
2023-12-24T12:33:39.757Z,3.15
2023-12-24T12:36:11.194Z,3.88
2023-12-24T12:38:41.323Z,3.60
2023-12-24T12:41:11.480Z,3.42
2023-12-24T12:43:41.458Z,2.92
2023-12-24T12:46:11.616Z,2.72
2023-12-24T12:48:45.687Z,3.25
2023-12-24T12:51:15.770Z,3.17
2023-12-24T12:53:46.331Z,3.08
2023-12-24T12:56:16.515Z,3.00
2023-12-24T12:58:54.721Z,3.10
2023-12-24T13:01:25.992Z,2.22
2023-12-24T13:04:07.598Z,2.47
2023-12-24T13:06:52.325Z,3.35
2023-12-24T13:12:07.928Z,2.72
2023-12-24T13:14:38.797Z,2.80
2023-12-24T13:17:10.676Z,3.17
2023-12-24T13:19:44.173Z,2.85
2023-12-24T13:22:14.467Z,3.30
2023-12-24T13:24:45.092Z,2.92
2023-12-24T13:27:15.385Z,3.67
2023-12-24T13:29:45.302Z,4.22
2023-12-24T13:32:18.483Z,3.05
2023-12-24T13:34:51.170Z,3.65
2023-12-24T13:37:21.164Z,3.78
2023-12-24T13:39:51.438Z,3.67
2023-12-24T13:42:21.268Z,3.78
2023-12-24T13:44:51.231Z,3.20
2023-12-24T13:47:21.291Z,2.85
2023-12-24T13:49:57.289Z,3.97
2023-12-24T13:52:27.418Z,3.58
2023-12-24T13:54:57.241Z,3.53
2023-12-24T13:57:27.168Z,3.92
2023-12-24T13:59:57.026Z,3.67
2023-12-24T14:02:27.236Z,3.15
2023-12-24T14:04:59.768Z,3.47
2023-12-24T14:07:31.889Z,3.47
2023-12-24T14:10:02.573Z,3.97
2023-12-24T14:12:32.478Z,4.32
2023-12-24T14:15:02.345Z,3.58
2023-12-24T14:17:32.271Z,4.40
2023-12-24T14:20:05.812Z,3.80
2023-12-24T14:22:35.730Z,3.38
2023-12-24T14:25:06.529Z,4.10
2023-12-24T14:27:36.372Z,4.22
2023-12-24T14:30:08.793Z,4.45
2023-12-24T14:32:38.867Z,3.85
2023-12-24T14:35:12.319Z,3.72
2023-12-24T14:37:42.171Z,3.05
2023-12-24T14:40:12.918Z,4.15
2023-12-24T14:42:42.813Z,4.07
2023-12-24T14:45:13.365Z,3.42
2023-12-24T14:47:43.649Z,4.20
2023-12-24T14:50:16.450Z,2.75
2023-12-24T14:52:46.358Z,2.83
2023-12-24T14:55:17.042Z,2.38
2023-12-24T14:57:47.179Z,2.45
2023-12-24T15:00:18.841Z,2.25
2023-12-24T15:02:48.966Z,2.25
2023-12-24T15:05:21.631Z,1.90
2023-12-24T15:07:51.806Z,1.90
2023-12-24T15:10:21.643Z,2.00
2023-12-24T15:12:52.269Z,1.50
2023-12-24T15:15:22.511Z,1.60
2023-12-24T15:17:52.697Z,1.50
2023-12-24T15:20:25.217Z,1.63
2023-12-24T15:22:55.236Z,1.85
2023-12-24T15:25:27.520Z,1.00
2023-12-24T15:27:57.512Z,1.83
2023-12-24T15:30:28.600Z,1.80
2023-12-24T15:33:00.629Z,1.27
2023-12-24T15:35:33.148Z,1.60
2023-12-24T15:38:03.103Z,1.30
2023-12-24T15:40:32.971Z,1.50
2023-12-24T15:43:02.740Z,1.70
2023-12-24T15:45:36.706Z,1.50
2023-12-24T15:48:09.687Z,1.48
2023-12-24T15:50:42.362Z,1.60
2023-12-24T15:53:12.197Z,1.45
2023-12-24T15:55:42.067Z,1.45
2023-12-24T15:58:11.866Z,1.40
2023-12-24T16:00:42.723Z,1.33
2023-12-24T16:03:12.566Z,2.13
2023-12-24T16:05:45.188Z,1.38
2023-12-24T16:08:15.121Z,1.40
2023-12-24T16:10:45.007Z,1.63
2023-12-24T16:13:14.912Z,1.90
2023-12-24T16:15:45.806Z,1.50
2023-12-24T16:18:16.081Z,1.35
2023-12-24T16:20:49.169Z,1.55
2023-12-24T16:23:19.121Z,1.60
2023-12-24T16:25:49.499Z,1.60
2023-12-24T16:28:19.609Z,1.63
2023-12-24T16:30:49.614Z,1.73
2023-12-24T16:33:19.520Z,1.63
2023-12-24T16:35:52.076Z,1.67
2023-12-24T16:38:22.168Z,1.60
2023-12-24T16:40:52.237Z,1.60
2023-12-24T16:43:22.332Z,1.48
2023-12-24T16:45:52.135Z,1.60
2023-12-24T16:48:22.218Z,1.20
2023-12-24T16:50:55.049Z,1.50
2023-12-24T16:53:24.988Z,1.40
2023-12-24T16:55:56.998Z,1.23
2023-12-24T16:58:26.898Z,0.98
2023-12-24T17:00:56.669Z,2.03
2023-12-24T17:03:30.187Z,1.65
2023-12-24T17:06:02.697Z,1.00
2023-12-24T17:08:35.643Z,1.50
2023-12-24T17:11:05.871Z,2.03
2023-12-24T17:13:36.093Z,2.38
2023-12-24T17:16:06.655Z,1.80
2023-12-24T17:18:36.686Z,1.70
2023-12-24T17:21:09.253Z,1.73
2023-12-24T17:23:39.240Z,2.05
2023-12-24T17:26:12.008Z,1.80
2023-12-24T17:28:42.030Z,2.60
2023-12-24T17:31:11.988Z,2.33
2023-12-24T17:33:41.961Z,1.73
2023-12-24T17:36:20.537Z,1.90
2023-12-24T17:38:47.852Z,1.92
2023-12-24T17:41:21.174Z,2.28
2023-12-24T17:43:51.042Z,2.20
2023-12-24T17:46:20.999Z,2.72
2023-12-24T17:48:51.070Z,1.88
2023-12-24T17:51:23.663Z,2.42
2023-12-24T17:53:54.178Z,2.17
2023-12-24T17:56:23.982Z,2.55
2023-12-24T17:58:53.854Z,2.47
2023-12-24T18:01:24.012Z,1.95
2023-12-24T18:03:53.785Z,1.85
2023-12-24T18:06:26.317Z,2.35
2023-12-24T18:08:56.283Z,2.13
2023-12-24T18:11:26.344Z,1.58
2023-12-24T18:13:56.147Z,2.33
2023-12-24T18:16:26.271Z,1.83
2023-12-24T18:18:56.348Z,2.00
2023-12-24T18:21:29.569Z,1.50
2023-12-24T18:23:59.413Z,1.48
2023-12-24T18:26:29.297Z,2.00
2023-12-24T18:28:59.185Z,2.38
2023-12-24T18:31:29.008Z,2.50
2023-12-24T18:33:58.935Z,2.03
2023-12-24T18:36:31.453Z,1.90
2023-12-24T18:39:01.277Z,1.83
2023-12-24T18:41:32.276Z,2.80
2023-12-24T18:44:02.052Z,1.98
2023-12-24T18:46:32.160Z,2.15
2023-12-24T18:49:02.170Z,1.80
2023-12-24T18:51:34.714Z,1.95
2023-12-24T18:54:04.844Z,2.13
2023-12-24T18:56:38.777Z,2.20
2023-12-24T18:59:09.228Z,1.52
2023-12-24T19:01:40.076Z,2.10
2023-12-24T19:04:10.008Z,1.60
2023-12-24T19:06:42.399Z,1.88
2023-12-24T19:09:12.750Z,1.92
2023-12-24T19:11:42.762Z,1.85
2023-12-24T19:14:13.084Z,2.45
2023-12-24T19:16:43.016Z,1.80
2023-12-24T19:19:12.972Z,2.25
2023-12-24T19:21:48.205Z,1.98
2023-12-24T19:24:23.133Z,2.42
2023-12-24T19:26:53.169Z,2.30
2023-12-24T19:29:23.660Z,3.30
2023-12-24T19:31:53.578Z,2.78
2023-12-24T19:34:23.536Z,2.78
2023-12-24T19:36:56.151Z,2.00
2023-12-24T19:39:26.080Z,1.50
2023-12-24T19:41:56.040Z,2.15
2023-12-24T19:44:26.622Z,2.08
2023-12-24T19:46:56.432Z,2.38
2023-12-24T19:49:26.625Z,1.70
2023-12-24T19:51:59.096Z,2.10
2023-12-24T19:54:28.928Z,1.85
2023-12-24T19:56:59.163Z,1.70
2023-12-24T19:59:29.177Z,1.70
2023-12-24T20:01:59.301Z,1.95
2023-12-24T20:04:29.223Z,1.90
2023-12-24T20:07:01.957Z,1.83
2023-12-24T20:09:32.822Z,1.50
2023-12-24T20:12:02.775Z,2.05
2023-12-24T20:14:33.685Z,2.00
2023-12-24T20:17:03.628Z,1.52
2023-12-24T20:19:35.864Z,1.73
2023-12-24T20:22:08.377Z,1.58
2023-12-24T20:24:38.744Z,1.33
2023-12-24T20:27:09.366Z,1.85
2023-12-24T20:29:39.670Z,2.53
2023-12-24T20:32:09.975Z,2.38
2023-12-24T20:34:40.648Z,2.28
2023-12-24T20:37:13.573Z,1.95
2023-12-24T20:39:43.654Z,1.95
2023-12-24T20:42:14.086Z,1.80
2023-12-24T20:44:44.242Z,2.15
2023-12-24T20:47:14.225Z,1.95
2023-12-24T20:49:44.602Z,2.25
2023-12-24T20:52:17.488Z,1.75
2023-12-24T20:54:51.994Z,1.80
2023-12-24T20:57:22.024Z,1.50
2023-12-24T20:59:53.828Z,1.67
2023-12-24T21:02:23.832Z,1.60
2023-12-24T21:04:53.728Z,1.63
2023-12-24T21:07:26.613Z,1.70
2023-12-24T21:09:56.938Z,1.60
2023-12-24T21:12:26.877Z,1.80
2023-12-24T21:14:56.778Z,2.47
2023-12-24T21:17:26.830Z,1.92
2023-12-24T21:19:56.985Z,1.73
2023-12-24T21:22:29.569Z,1.23
2023-12-24T21:24:59.719Z,2.00
2023-12-24T21:27:29.526Z,1.95
2023-12-24T21:29:59.614Z,1.90
2023-12-24T21:32:29.624Z,1.70
2023-12-24T21:35:00.645Z,2.45
2023-12-24T21:37:33.618Z,1.63
2023-12-24T21:40:04.147Z,2.03
2023-12-24T21:42:34.051Z,1.88
2023-12-24T21:45:08.483Z,2.22
2023-12-24T21:47:38.646Z,1.83
2023-12-24T21:50:09.913Z,2.20
2023-12-24T21:52:42.958Z,1.70
2023-12-24T21:55:12.838Z,2.17
2023-12-24T21:57:42.703Z,1.92
2023-12-24T22:00:13.250Z,2.15
2023-12-24T22:02:43.442Z,2.45
2023-12-24T22:05:14.859Z,2.17
2023-12-24T22:07:49.505Z,2.22
2023-12-24T22:10:19.896Z,1.80
2023-12-24T22:12:49.800Z,2.30
2023-12-24T22:15:19.697Z,2.15
2023-12-24T22:17:50.860Z,1.23
2023-12-24T22:20:22.530Z,2.42
2023-12-24T22:22:55.091Z,2.30
2023-12-24T22:25:24.933Z,2.10
2023-12-24T22:27:55.998Z,1.80
2023-12-24T22:30:27.293Z,1.63
2023-12-24T22:32:57.772Z,2.10
2023-12-24T22:35:27.677Z,2.30
2023-12-24T22:38:00.251Z,2.20
2023-12-24T22:40:30.821Z,2.55
2023-12-24T22:43:00.961Z,1.75
2023-12-24T22:45:33.520Z,2.20
2023-12-24T22:48:03.935Z,2.38
2023-12-24T22:50:34.678Z,2.70
2023-12-24T22:53:12.270Z,2.58
2023-12-24T22:55:42.185Z,2.20
2023-12-24T22:58:12.161Z,2.28
2023-12-24T23:00:42.050Z,2.85
2023-12-24T23:03:12.052Z,2.47
2023-12-24T23:05:42.095Z,2.60
2023-12-24T23:08:16.301Z,2.92
2023-12-24T23:10:46.192Z,2.40
2023-12-24T23:13:16.432Z,2.78
2023-12-24T23:15:46.374Z,2.20
2023-12-24T23:18:16.389Z,2.45
2023-12-24T23:20:49.764Z,2.70
2023-12-24T23:23:22.341Z,3.22
2023-12-24T23:25:52.609Z,2.45
2023-12-24T23:28:22.926Z,1.85
2023-12-24T23:30:52.924Z,2.17
2023-12-24T23:33:23.032Z,2.35
2023-12-24T23:36:02.185Z,1.73
2023-12-24T23:38:41.794Z,2.88
2023-12-24T23:41:12.228Z,1.92
2023-12-24T23:43:42.076Z,1.42
2023-12-24T23:46:12.787Z,1.80
2023-12-24T23:48:45.779Z,1.92
2023-12-24T23:51:15.846Z,2.08
2023-12-24T23:53:51.617Z,2.65
2023-12-24T23:56:22.110Z,2.17
2023-12-24T23:58:52.073Z,2.45
